Buxton, Mississippi
Current Conditions -  °F | °C
As of 11:35 PM on Saturday 20 Dec 2014 (Local Time) from KUTA Reporting Station
Haze Haze  
Wind Chill: 30°   Ceiling: Unl
Heat Index: 34°   Visibility: 5mi
Dew Point: 32°   Wind: 5mph
Humidity: 93%   Direction: 20°NNE
Pressure: 30.25"   Gusts: NA
Location:  34.6036°N, 90.124°W
Report Text: KUTA 210535Z AUTO 02004KT 5SM BR CLR 01/00 A3025 RMK AO2
Loading
Personal Weather Stations






























Interactive Weather Map New forecast layout! Learn more

10-Day Weather Forecast

Advertisements
Track Severe Weather on mobile